Centerville, Indiana
Current Conditions -  °F | °C
As of 12:53 PM on Wednesday 26 Nov 2014 (Local Time) from KMIE Reporting Station
Overcast Overcast  
Wind Chill: 23°   Ceiling: 1700
Heat Index: 28°   Visibility: 10mi
Dew Point: 21°   Wind: 5mph
Humidity: 75%   Direction: 120°ESE
Pressure: 30.09"   Gusts: NA
Location:  39.82°N, 85°W
Report Text: KMIE 261753Z 12004KT 10SM OVC017 M02/M06 A3009 RMK AO2 SLP195 T10221061 11022 21028 58021
Loading
Personal Weather Stations






























Interactive Weather Map New forecast layout! Learn more

10-Day Weather Forecast

Advertisements
Track Severe Weather on mobile